sensor_id;sensor_type;location;lat;lon;timestamp;pressure;altitude;pressure_sealevel;temperature;humidity
47082;BME280;33066;49.296;14.470;2023-04-01T00:00:56;95455.45;;;13.13;39.14
47082;BME280;33066;49.296;14.470;2023-04-01T00:03:21;95458.18;;;13.42;39.11
47082;BME280;33066;49.296;14.470;2023-04-01T00:05:46;95459.90;;;13.45;39.44
47082;BME280;33066;49.296;14.470;2023-04-01T00:08:11;95459.42;;;13.37;39.62
47082;BME280;33066;49.296;14.470;2023-04-01T00:10:36;95456.11;;;13.28;39.67
47082;BME280;33066;49.296;14.470;2023-04-01T00:13:02;95454.13;;;12.93;39.74
47082;BME280;33066;49.296;14.470;2023-04-01T00:15:28;95452.66;;;13.18;39.67
47082;BME280;33066;49.296;14.470;2023-04-01T00:17:52;95454.12;;;13.58;39.56
47082;BME280;33066;49.296;14.470;2023-04-01T00:20:18;95456.62;;;13.37;39.63
47082;BME280;33066;49.296;14.470;2023-04-01T00:22:43;95458.47;;;13.42;39.69
47082;BME280;33066;49.296;14.470;2023-04-01T00:25:10;95452.69;;;13.48;39.65
47082;BME280;33066;49.296;14.470;2023-04-01T00:27:33;95447.51;;;13.55;39.67
47082;BME280;33066;49.296;14.470;2023-04-01T00:30:00;95446.60;;;13.55;39.83
47082;BME280;33066;49.296;14.470;2023-04-01T00:32:24;95447.22;;;13.57;39.92
47082;BME280;33066;49.296;14.470;2023-04-01T00:34:50;95443.98;;;13.55;39.70
47082;BME280;33066;49.296;14.470;2023-04-01T00:37:15;95441.54;;;13.29;39.61
47082;BME280;33066;49.296;14.470;2023-04-01T00:39:41;95442.66;;;13.54;39.51
47082;BME280;33066;49.296;14.470;2023-04-01T00:42:09;95443.45;;;13.45;39.57
47082;BME280;33066;49.296;14.470;2023-04-01T00:44:32;95441.56;;;13.46;39.59
47082;BME280;33066;49.296;14.470;2023-04-01T00:46:56;95439.34;;;13.26;39.50
47082;BME280;33066;49.296;14.470;2023-04-01T00:49:26;95438.39;;;13.69;39.51
47082;BME280;33066;49.296;14.470;2023-04-01T00:51:50;95438.19;;;13.43;39.33
47082;BME280;33066;49.296;14.470;2023-04-01T00:54:12;95436.53;;;13.39;39.08
47082;BME280;33066;49.296;14.470;2023-04-01T00:56:45;95437.11;;;13.38;39.18
47082;BME280;33066;49.296;14.470;2023-04-01T00:59:08;95432.13;;;13.46;39.15
47082;BME280;33066;49.296;14.470;2023-04-01T01:01:29;95429.02;;;13.27;39.17
47082;BME280;33066;49.296;14.470;2023-04-01T01:03:54;95429.81;;;13.38;38.96
47082;BME280;33066;49.296;14.470;2023-04-01T01:06:30;95427.91;;;13.31;39.23
47082;BME280;33066;49.296;14.470;2023-04-01T01:11:10;95429.79;;;13.30;38.84
47082;BME280;33066;49.296;14.470;2023-04-01T01:13:41;95433.07;;;13.40;38.87
47082;BME280;33066;49.296;14.470;2023-04-01T01:16:03;95435.37;;;13.43;38.74
47082;BME280;33066;49.296;14.470;2023-04-01T01:18:32;95435.39;;;13.48;38.76
47082;BME280;33066;49.296;14.470;2023-04-01T01:25:46;95445.49;;;13.46;38.80
47082;BME280;33066;49.296;14.470;2023-04-01T01:28:17;95447.34;;;13.17;38.84
47082;BME280;33066;49.296;14.470;2023-04-01T01:33:06;95446.41;;;13.35;38.76
47082;BME280;33066;49.296;14.470;2023-04-01T01:35:25;95444.46;;;13.08;38.60
47082;BME280;33066;49.296;14.470;2023-04-01T01:37:50;95446.35;;;13.16;38.57
47082;BME280;33066;49.296;14.470;2023-04-01T01:40:13;95451.51;;;13.35;38.54
47082;BME280;33066;49.296;14.470;2023-04-01T01:42:40;95453.87;;;13.21;38.60
47082;BME280;33066;49.296;14.470;2023-04-01T01:45:04;95453.89;;;13.42;38.57
47082;BME280;33066;49.296;14.470;2023-04-01T01:47:29;95452.63;;;13.22;38.53
47082;BME280;33066;49.296;14.470;2023-04-01T01:49:55;95455.01;;;13.44;38.45
47082;BME280;33066;49.296;14.470;2023-04-01T01:52:19;95456.47;;;13.48;38.44
47082;BME280;33066;49.296;14.470;2023-04-01T01:54:48;95458.17;;;13.57;38.49
47082;BME280;33066;49.296;14.470;2023-04-01T01:57:10;95458.18;;;13.69;38.44
47082;BME280;33066;49.296;14.470;2023-04-01T01:59:38;95459.37;;;13.50;38.38
47082;BME280;33066;49.296;14.470;2023-04-01T02:02:02;95457.69;;;13.79;38.29
47082;BME280;33066;49.296;14.470;2023-04-01T02:04:26;95458.68;;;13.84;38.29
47082;BME280;33066;49.296;14.470;2023-04-01T02:06:55;95456.74;;;13.65;38.23
47082;BME280;33066;49.296;14.470;2023-04-01T02:09:16;95457.96;;;13.69;38.58
47082;BME280;33066;49.296;14.470;2023-04-01T02:11:45;95460.69;;;13.92;38.74
47082;BME280;33066;49.296;14.470;2023-04-01T02:14:11;95461.09;;;13.85;38.77
47082;BME280;33066;49.296;14.470;2023-04-01T02:16:36;95457.75;;;13.86;38.94
47082;BME280;33066;49.296;14.470;2023-04-01T02:18:58;95456.26;;;13.82;39.09
47082;BME280;33066;49.296;14.470;2023-04-01T02:21:25;95454.59;;;13.83;39.18
47082;BME280;33066;49.296;14.470;2023-04-01T02:23:49;95455.75;;;13.84;39.21
47082;BME280;33066;49.296;14.470;2023-04-01T02:26:14;95458.31;;;13.44;39.39
47082;BME280;33066;49.296;14.470;2023-04-01T02:28:40;95464.54;;;13.37;39.55
47082;BME280;33066;49.296;14.470;2023-04-01T02:31:05;95464.25;;;13.52;39.72
47082;BME280;33066;49.296;14.470;2023-04-01T02:33:31;95468.66;;;13.44;40.06
47082;BME280;33066;49.296;14.470;2023-04-01T02:35:55;95471.67;;;13.22;40.30
47082;BME280;33066;49.296;14.470;2023-04-01T02:38:21;95472.10;;;13.45;40.11
47082;BME280;33066;49.296;14.470;2023-04-01T02:40:48;95473.60;;;13.37;39.94
47082;BME280;33066;49.296;14.470;2023-04-01T02:43:11;95474.90;;;13.34;40.22
47082;BME280;33066;49.296;14.470;2023-04-01T02:45:37;95473.72;;;13.37;39.75
47082;BME280;33066;49.296;14.470;2023-04-01T02:48:02;95472.54;;;13.47;39.44
47082;BME280;33066;49.296;14.470;2023-04-01T02:50:27;95472.59;;;13.57;39.36
47082;BME280;33066;49.296;14.470;2023-04-01T02:52:52;95472.44;;;13.28;38.84
47082;BME280;33066;49.296;14.470;2023-04-01T02:55:18;95474.56;;;13.58;38.61
47082;BME280;33066;49.296;14.470;2023-04-01T02:57:43;95476.58;;;13.63;38.50
47082;BME280;33066;49.296;14.470;2023-04-01T03:00:09;95478.43;;;13.55;38.39
47082;BME280;33066;49.296;14.470;2023-04-01T03:02:34;95480.89;;;13.30;38.61
47082;BME280;33066;49.296;14.470;2023-04-01T03:04:59;95481.65;;;13.26;38.50
47082;BME280;33066;49.296;14.470;2023-04-01T03:07:24;95482.67;;;13.17;38.41
47082;BME280;33066;49.296;14.470;2023-04-01T03:09:50;95481.34;;;13.05;38.67
47082;BME280;33066;49.296;14.470;2023-04-01T03:13:00;95479.12;;;13.65;38.20
47082;BME280;33066;49.296;14.470;2023-04-01T03:15:26;95481.46;;;13.54;38.21
47082;BME280;33066;49.296;14.470;2023-04-01T03:17:51;95484.37;;;13.23;38.27
47082;BME280;33066;49.296;14.470;2023-04-01T03:20:16;95480.93;;;13.47;38.33
47082;BME280;33066;49.296;14.470;2023-04-01T03:22:42;95481.44;;;13.44;38.24
47082;BME280;33066;49.296;14.470;2023-04-01T03:25:08;95482.52;;;13.39;38.37
47082;BME280;33066;49.296;14.470;2023-04-01T03:27:32;95489.17;;;13.34;38.47
47082;BME280;33066;49.296;14.470;2023-04-01T03:29:58;95488.64;;;13.29;38.44
47082;BME280;33066;49.296;14.470;2023-04-01T03:32:23;95489.62;;;13.21;38.47
47082;BME280;33066;49.296;14.470;2023-04-01T03:34:48;95492.27;;;13.23;38.79
47082;BME280;33066;49.296;14.470;2023-04-01T03:37:14;95492.52;;;13.33;38.57
47082;BME280;33066;49.296;14.470;2023-04-01T03:39:39;95493.71;;;13.28;38.80
47082;BME280;33066;49.296;14.470;2023-04-01T03:42:04;95496.33;;;13.33;38.87
47082;BME280;33066;49.296;14.470;2023-04-01T03:44:31;95496.86;;;13.38;38.66
47082;BME280;33066;49.296;14.470;2023-04-01T03:46:55;95496.98;;;13.14;38.64
47082;BME280;33066;49.296;14.470;2023-04-01T03:49:20;95500.66;;;13.40;38.48
47082;BME280;33066;49.296;14.470;2023-04-01T03:51:45;95496.59;;;13.25;38.41
47082;BME280;33066;49.296;14.470;2023-04-01T03:54:11;95498.60;;;13.27;38.36
47082;BME280;33066;49.296;14.470;2023-04-01T03:56:36;95502.62;;;13.49;38.29
47082;BME280;33066;49.296;14.470;2023-04-01T03:59:03;95499.90;;;13.57;38.36
47082;BME280;33066;49.296;14.470;2023-04-01T04:01:27;95505.71;;;13.29;38.37
47082;BME280;33066;49.296;14.470;2023-04-01T04:03:52;95507.32;;;13.22;38.31
47082;BME280;33066;49.296;14.470;2023-04-01T04:06:18;95505.21;;;13.22;38.58
47082;BME280;33066;49.296;14.470;2023-04-01T04:08:43;95506.20;;;13.56;38.47
47082;BME280;33066;49.296;14.470;2023-04-01T04:11:08;95509.28;;;13.30;38.52
47082;BME280;33066;49.296;14.470;2023-04-01T04:13:33;95509.38;;;13.49;38.49
47082;BME280;33066;49.296;14.470;2023-04-01T04:15:59;95512.96;;;13.48;38.53
47082;BME280;33066;49.296;14.470;2023-04-01T04:18:24;95515.79;;;13.55;38.57
47082;BME280;33066;49.296;14.470;2023-04-01T04:20:50;95515.45;;;13.25;38.40
47082;BME280;33066;49.296;14.470;2023-04-01T04:23:15;95517.98;;;13.54;38.42
47082;BME280;33066;49.296;14.470;2023-04-01T04:25:40;95520.73;;;13.22;38.45
47082;BME280;33066;49.296;14.470;2023-04-01T04:28:06;95520.95;;;13.31;38.36
47082;BME280;33066;49.296;14.470;2023-04-01T04:30:31;95523.92;;;13.52;38.40
47082;BME280;33066;49.296;14.470;2023-04-01T04:32:56;95525.39;;;13.32;38.34
47082;BME280;33066;49.296;14.470;2023-04-01T04:35:21;95525.61;;;13.59;38.31
47082;BME280;33066;49.296;14.470;2023-04-01T04:37:47;95527.92;;;13.60;38.22
47082;BME280;33066;49.296;14.470;2023-04-01T04:40:12;95525.20;;;13.59;38.30
47082;BME280;33066;49.296;14.470;2023-04-01T04:42:37;95527.69;;;13.62;38.14
47082;BME280;33066;49.296;14.470;2023-04-01T04:45:03;95528.82;;;13.58;38.23
47082;BME280;33066;49.296;14.470;2023-04-01T04:47:28;95529.95;;;13.40;38.06
47082;BME280;33066;49.296;14.470;2023-04-01T04:49:53;95531.59;;;13.41;38.11
47082;BME280;33066;49.296;14.470;2023-04-01T04:52:18;95530.19;;;13.47;38.08
47082;BME280;33066;49.296;14.470;2023-04-01T04:54:44;95529.54;;;13.68;37.98
47082;BME280;33066;49.296;14.470;2023-04-01T04:57:09;95531.64;;;13.44;38.06
47082;BME280;33066;49.296;14.470;2023-04-01T04:59:34;95531.08;;;13.51;38.08
47082;BME280;33066;49.296;14.470;2023-04-01T05:02:00;95530.35;;;13.66;38.07
47082;BME280;33066;49.296;14.470;2023-04-01T05:04:25;95529.72;;;13.69;37.98
47082;BME280;33066;49.296;14.470;2023-04-01T05:06:50;95530.49;;;13.68;38.02
47082;BME280;33066;49.296;14.470;2023-04-01T05:09:15;95533.61;;;13.76;37.93
47082;BME280;33066;49.296;14.470;2023-04-01T05:11:41;95536.35;;;13.76;37.91
47082;BME280;33066;49.296;14.470;2023-04-01T05:14:11;95541.40;;;13.31;37.81
47082;BME280;33066;49.296;14.470;2023-04-01T05:16:31;95544.29;;;13.81;37.87
47082;BME280;33066;49.296;14.470;2023-04-01T05:18:57;95544.01;;;13.68;37.86
47082;BME280;33066;49.296;14.470;2023-04-01T05:21:22;95542.99;;;13.55;37.77
47082;BME280;33066;49.296;14.470;2023-04-01T05:23:47;95548.57;;;13.74;37.52
47082;BME280;33066;49.296;14.470;2023-04-01T05:26:13;95548.90;;;13.87;37.64
47082;BME280;33066;49.296;14.470;2023-04-01T05:28:38;95549.48;;;13.96;37.09
47082;BME280;33066;49.296;14.470;2023-04-01T05:31:04;95547.67;;;14.03;36.92
47082;BME280;33066;49.296;14.470;2023-04-01T05:33:29;95547.87;;;14.10;37.14
47082;BME280;33066;49.296;14.470;2023-04-01T05:35:54;95548.45;;;14.05;37.21
47082;BME280;33066;49.296;14.470;2023-04-01T05:38:19;95548.05;;;13.94;37.40
47082;BME280;33066;49.296;14.470;2023-04-01T05:40:44;95550.07;;;13.72;37.66
47082;BME280;33066;49.296;14.470;2023-04-01T05:43:09;95553.09;;;13.74;37.59
47082;BME280;33066;49.296;14.470;2023-04-01T05:48:00;95549.34;;;13.72;37.84
47082;BME280;33066;49.296;14.470;2023-04-01T05:50:25;95546.79;;;13.81;38.06
47082;BME280;33066;49.296;14.470;2023-04-01T05:52:51;95551.02;;;13.65;38.10
47082;BME280;33066;49.296;14.470;2023-04-01T05:55:16;95553.57;;;13.80;38.12
47082;BME280;33066;49.296;14.470;2023-04-01T05:57:42;95556.52;;;13.74;38.27
47082;BME280;33066;49.296;14.470;2023-04-01T06:00:08;95554.30;;;13.59;38.27
47082;BME280;33066;49.296;14.470;2023-04-01T06:02:32;95557.24;;;13.63;38.17
47082;BME280;33066;49.296;14.470;2023-04-01T06:05:10;95558.70;;;13.93;38.02
47082;BME280;33066;49.296;14.470;2023-04-01T06:07:23;95556.87;;;13.78;37.92
47082;BME280;33066;49.296;14.470;2023-04-01T06:09:48;95549.80;;;13.81;37.94
47082;BME280;33066;49.296;14.470;2023-04-01T06:12:24;95551.26;;;13.74;38.08
47082;BME280;33066;49.296;14.470;2023-04-01T06:14:46;95550.33;;;13.99;38.10
47082;BME280;33066;49.296;14.470;2023-04-01T06:17:16;95548.41;;;13.80;37.85
47082;BME280;33066;49.296;14.470;2023-04-01T06:19:36;95550.77;;;13.83;37.82
47082;BME280;33066;49.296;14.470;2023-04-01T06:22:10;95549.16;;;13.87;37.75
47082;BME280;33066;49.296;14.470;2023-04-01T06:24:30;95556.56;;;14.00;37.56
47082;BME280;33066;49.296;14.470;2023-04-01T06:26:49;95557.32;;;13.92;37.48
47082;BME280;33066;49.296;14.470;2023-04-01T06:29:19;95555.50;;;14.07;37.44
47082;BME280;33066;49.296;14.470;2023-04-01T06:31:48;95557.22;;;14.16;37.24
47082;BME280;33066;49.296;14.470;2023-04-01T06:34:20;95562.62;;;14.26;36.99
47082;BME280;33066;49.296;14.470;2023-04-01T06:36:36;95556.09;;;14.19;37.00
47082;BME280;33066;49.296;14.470;2023-04-01T06:39:02;95557.04;;;13.89;37.05
47082;BME280;33066;49.296;14.470;2023-04-01T06:41:34;95557.54;;;14.44;37.09
47082;BME280;33066;49.296;14.470;2023-04-01T06:43:50;95561.11;;;14.52;36.73
47082;BME280;33066;49.296;14.470;2023-04-01T06:46:14;95557.31;;;14.56;36.93
47082;BME280;33066;49.296;14.470;2023-04-01T06:48:44;95559.56;;;14.54;36.63
47082;BME280;33066;49.296;14.470;2023-04-01T06:51:06;95559.99;;;14.56;36.55
47082;BME280;33066;49.296;14.470;2023-04-01T06:53:29;95558.81;;;14.29;36.47
47082;BME280;33066;49.296;14.470;2023-04-01T06:55:53;95565.74;;;14.10;36.42
47082;BME280;33066;49.296;14.470;2023-04-01T06:58:20;95560.02;;;14.60;36.71
47082;BME280;33066;49.296;14.470;2023-04-01T07:00:42;95563.46;;;14.43;36.77
47082;BME280;33066;49.296;14.470;2023-04-01T07:03:14;95567.01;;;14.47;36.15
47082;BME280;33066;49.296;14.470;2023-04-01T07:05:31;95562.04;;;14.34;36.62
47082;BME280;33066;49.296;14.470;2023-04-01T07:07:59;95560.99;;;14.44;36.18
47082;BME280;33066;49.296;14.470;2023-04-01T07:10:28;95556.26;;;14.29;36.21
47082;BME280;33066;49.296;14.470;2023-04-01T07:12:48;95553.21;;;14.15;36.64
47082;BME280;33066;49.296;14.470;2023-04-01T07:15:18;95550.18;;;13.96;36.24
47082;BME280;33066;49.296;14.470;2023-04-01T07:17:39;95549.81;;;13.68;37.08
47082;BME280;33066;49.296;14.470;2023-04-01T07:20:10;95556.59;;;14.13;36.43
47082;BME280;33066;49.296;14.470;2023-04-01T07:22:31;95555.26;;;13.88;36.01
47082;BME280;33066;49.296;14.470;2023-04-01T07:24:53;95558.89;;;13.95;36.18
47082;BME280;33066;49.296;14.470;2023-04-01T07:27:18;95561.70;;;14.03;35.96
47082;BME280;33066;49.296;14.470;2023-04-01T07:29:43;95568.05;;;14.07;35.93
47082;BME280;33066;49.296;14.470;2023-04-01T07:32:17;95563.67;;;13.73;35.65
47082;BME280;33066;49.296;14.470;2023-04-01T07:34:41;95569.99;;;13.90;35.90
47082;BME280;33066;49.296;14.470;2023-04-01T07:37:03;95574.28;;;14.17;35.23
47082;BME280;33066;49.296;14.470;2023-04-01T07:39:33;95553.91;;;14.02;35.56
47082;BME280;33066;49.296;14.470;2023-04-01T07:41:55;95573.80;;;13.91;35.26
47082;BME280;33066;49.296;14.470;2023-04-01T07:44:21;95573.90;;;13.92;35.11
47082;BME280;33066;49.296;14.470;2023-04-01T07:46:53;95574.73;;;13.95;35.02
47082;BME280;33066;49.296;14.470;2023-04-01T07:49:10;95571.68;;;14.04;35.31
47082;BME280;33066;49.296;14.470;2023-04-01T07:51:37;95577.15;;;14.08;35.36
47082;BME280;33066;49.296;14.470;2023-04-01T07:54:02;95575.32;;;14.21;35.36
47082;BME280;33066;49.296;14.470;2023-04-01T07:56:28;95580.36;;;14.13;34.73
47082;BME280;33066;49.296;14.470;2023-04-01T07:58:55;95583.29;;;14.14;35.23
47082;BME280;33066;49.296;14.470;2023-04-01T08:01:17;95581.35;;;14.15;34.97
47082;BME280;33066;49.296;14.470;2023-04-01T08:03:49;95579.53;;;14.03;34.89
47082;BME280;33066;49.296;14.470;2023-04-01T08:06:09;95583.07;;;14.46;34.95
47082;BME280;33066;49.296;14.470;2023-04-01T08:08:38;95583.41;;;14.67;34.81
47082;BME280;33066;49.296;14.470;2023-04-01T08:10:59;95585.67;;;14.67;35.02
47082;BME280;33066;49.296;14.470;2023-04-01T08:13:29;95589.49;;;14.74;34.76
47082;BME280;33066;49.296;14.470;2023-04-01T08:15:49;95584.00;;;14.85;34.64
47082;BME280;33066;49.296;14.470;2023-04-01T08:18:18;95586.68;;;14.96;34.13
47082;BME280;33066;49.296;14.470;2023-04-01T08:20:41;95594.24;;;14.79;33.65
47082;BME280;33066;49.296;14.470;2023-04-01T08:23:07;95592.75;;;14.78;34.04
47082;BME280;33066;49.296;14.470;2023-04-01T08:25:29;95591.10;;;14.44;34.27
47082;BME280;33066;49.296;14.470;2023-04-01T08:27:57;95593.08;;;14.97;34.22
47082;BME280;33066;49.296;14.470;2023-04-01T08:30:20;95593.91;;;14.85;34.13
47082;BME280;33066;49.296;14.470;2023-04-01T08:32:47;95597.92;;;14.75;34.10
47082;BME280;33066;49.296;14.470;2023-04-01T08:35:14;95590.49;;;14.86;33.61
47082;BME280;33066;49.296;14.470;2023-04-01T08:37:37;95592.66;;;14.30;34.06
47082;BME280;33066;49.296;14.470;2023-04-01T08:40:05;95588.25;;;14.68;34.21
47082;BME280;33066;49.296;14.470;2023-04-01T08:42:43;95595.36;;;14.66;34.14
47082;BME280;33066;49.296;14.470;2023-04-01T08:45:07;95593.79;;;14.38;34.05
47082;BME280;33066;49.296;14.470;2023-04-01T08:47:29;95591.55;;;14.94;34.24
47082;BME280;33066;49.296;14.470;2023-04-01T08:49:56;95594.67;;;14.53;33.87
47082;BME280;33066;49.296;14.470;2023-04-01T08:52:19;95598.19;;;14.89;34.16
47082;BME280;33066;49.296;14.470;2023-04-01T08:54:44;95597.36;;;15.04;33.82
47082;BME280;33066;49.296;14.470;2023-04-01T08:57:01;95595.30;;;15.07;34.19
47082;BME280;33066;49.296;14.470;2023-04-01T08:59:34;95589.85;;;15.28;34.16
47082;BME280;33066;49.296;14.470;2023-04-01T09:02:05;95592.61;;;14.92;33.87
47082;BME280;33066;49.296;14.470;2023-04-01T09:04:22;95589.63;;;15.20;33.91
47082;BME280;33066;49.296;14.470;2023-04-01T09:06:48;95595.59;;;15.43;33.47
47082;BME280;33066;49.296;14.470;2023-04-01T09:09:23;95593.03;;;15.05;33.51
47082;BME280;33066;49.296;14.470;2023-04-01T09:11:38;95598.47;;;15.45;32.84
47082;BME280;33066;49.296;14.470;2023-04-01T09:14:12;95593.64;;;15.35;33.02
47082;BME280;33066;49.296;14.470;2023-04-01T09:16:28;95596.99;;;15.22;32.77
47082;BME280;33066;49.296;14.470;2023-04-01T09:18:59;95602.71;;;15.16;32.90
47082;BME280;33066;49.296;14.470;2023-04-01T09:21:20;95597.90;;;15.29;33.15
47082;BME280;33066;49.296;14.470;2023-04-01T09:26:13;95601.68;;;15.49;32.54
47082;BME280;33066;49.296;14.470;2023-04-01T09:28:28;95597.86;;;15.23;32.77
47082;BME280;33066;49.296;14.470;2023-04-01T09:31:10;95606.58;;;15.37;32.27
47082;BME280;33066;49.296;14.470;2023-04-01T09:35:46;95614.21;;;15.54;32.72
47082;BME280;33066;49.296;14.470;2023-04-01T09:38:20;95602.64;;;15.65;32.31
47082;BME280;33066;49.296;14.470;2023-04-01T09:40:40;95597.73;;;15.37;32.36
47082;BME280;33066;49.296;14.470;2023-04-01T09:45:35;95600.40;;;15.29;31.68
47082;BME280;33066;49.296;14.470;2023-04-01T09:48:00;95594.39;;;15.37;32.18
47082;BME280;33066;49.296;14.470;2023-04-01T09:50:26;95601.31;;;15.30;32.38
47082;BME280;33066;49.296;14.470;2023-04-01T09:52:44;95612.12;;;15.54;33.33
47082;BME280;33066;49.296;14.470;2023-04-01T09:55:17;95604.81;;;15.59;33.31
47082;BME280;33066;49.296;14.470;2023-04-01T09:57:40;95603.42;;;16.08;33.09
47082;BME280;33066;49.296;14.470;2023-04-01T10:12:19;95597.04;;;15.90;30.49
47082;BME280;33066;49.296;14.470;2023-04-01T10:17:09;95592.61;;;15.81;31.06
47082;BME280;33066;49.296;14.470;2023-04-01T10:21:58;95595.81;;;15.82;31.92
47082;BME280;33066;49.296;14.470;2023-04-01T10:24:20;95593.73;;;15.91;30.98
47082;BME280;33066;49.296;14.470;2023-04-01T10:31:36;95591.12;;;15.44;31.49
47082;BME280;33066;49.296;14.470;2023-04-01T10:38:59;95594.74;;;15.61;30.86
47082;BME280;33066;49.296;14.470;2023-04-01T10:41:18;95594.73;;;15.70;31.13
47082;BME280;33066;49.296;14.470;2023-04-01T10:48:32;95597.49;;;16.10;31.14
47082;BME280;33066;49.296;14.470;2023-04-01T10:55:48;95584.45;;;15.66;31.57
47082;BME280;33066;49.296;14.470;2023-04-01T11:07:55;95600.66;;;15.32;31.72
47082;BME280;33066;49.296;14.470;2023-04-01T11:15:23;95597.39;;;15.79;31.27
47082;BME280;33066;49.296;14.470;2023-04-01T11:20:08;95594.59;;;16.11;31.15
47082;BME280;33066;49.296;14.470;2023-04-01T11:22:31;95584.63;;;16.42;29.99
47082;BME280;33066;49.296;14.470;2023-04-01T11:24:55;95581.55;;;16.17;30.20
47082;BME280;33066;49.296;14.470;2023-04-01T11:27:24;95583.84;;;16.05;30.17
47082;BME280;33066;49.296;14.470;2023-04-01T11:29:48;95584.96;;;16.02;30.05
47082;BME280;33066;49.296;14.470;2023-04-01T11:32:07;95590.82;;;16.43;29.74
47082;BME280;33066;49.296;14.470;2023-04-01T11:34:37;95582.40;;;16.27;30.79
47082;BME280;33066;49.296;14.470;2023-04-01T11:36:58;95578.23;;;16.59;30.50
47082;BME280;33066;49.296;14.470;2023-04-01T11:39:23;95581.63;;;16.36;30.11
47082;BME280;33066;49.296;14.470;2023-04-01T11:41:45;95588.24;;;16.38;30.18
47082;BME280;33066;49.296;14.470;2023-04-01T11:44:16;95585.95;;;16.10;30.06
47082;BME280;33066;49.296;14.470;2023-04-01T11:46:39;95588.11;;;15.97;30.66
47082;BME280;33066;49.296;14.470;2023-04-01T11:49:04;95589.36;;;16.23;30.98
47082;BME280;33066;49.296;14.470;2023-04-01T11:53:53;95587.41;;;16.29;31.07
47082;BME280;33066;49.296;14.470;2023-04-01T11:56:23;95595.26;;;16.19;30.52
47082;BME280;33066;49.296;14.470;2023-04-01T11:58:51;95588.96;;;16.10;31.17
47082;BME280;33066;49.296;14.470;2023-04-01T12:01:17;95590.61;;;16.16;30.84
47082;BME280;33066;49.296;14.470;2023-04-01T12:03:42;95593.24;;;15.96;31.14
47082;BME280;33066;49.296;14.470;2023-04-01T12:05:58;95593.62;;;16.18;31.14
47082;BME280;33066;49.296;14.470;2023-04-01T12:08:27;95594.76;;;16.29;30.85
47082;BME280;33066;49.296;14.470;2023-04-01T12:10:50;95592.64;;;16.46;31.01
47082;BME280;33066;49.296;14.470;2023-04-01T12:13:22;95593.50;;;16.67;30.76
47082;BME280;33066;49.296;14.470;2023-04-01T12:15:45;95592.47;;;16.63;30.50
47082;BME280;33066;49.296;14.470;2023-04-01T12:18:05;95593.54;;;17.08;30.18
47082;BME280;33066;49.296;14.470;2023-04-01T12:20:35;95589.54;;;17.19;30.22
47082;BME280;33066;49.296;14.470;2023-04-01T12:22:57;95583.42;;;17.10;29.91
47082;BME280;33066;49.296;14.470;2023-04-01T12:25:25;95582.14;;;17.22;29.65
47082;BME280;33066;49.296;14.470;2023-04-01T12:27:45;95585.48;;;17.40;29.59
47082;BME280;33066;49.296;14.470;2023-04-01T12:30:21;95584.18;;;17.01;29.39
47082;BME280;33066;49.296;14.470;2023-04-01T12:32:34;95575.25;;;17.26;29.54
47082;BME280;33066;49.296;14.470;2023-04-01T12:37:28;95567.21;;;17.51;28.60
47082;BME280;33066;49.296;14.470;2023-04-01T12:39:57;95568.68;;;17.27;29.06
47082;BME280;33066;49.296;14.470;2023-04-01T12:42:20;95570.10;;;17.17;29.35
47082;BME280;33066;49.296;14.470;2023-04-01T12:44:45;95569.99;;;17.36;29.20
47082;BME280;33066;49.296;14.470;2023-04-01T12:47:14;95569.74;;;17.36;29.18
47082;BME280;33066;49.296;14.470;2023-04-01T12:49:39;95563.76;;;17.57;29.39
47082;BME280;33066;49.296;14.470;2023-04-01T12:52:04;95560.31;;;17.36;29.55
47082;BME280;33066;49.296;14.470;2023-04-01T12:56:49;95559.85;;;17.49;29.42
47082;BME280;33066;49.296;14.470;2023-04-01T12:59:19;95558.17;;;17.45;29.44
47082;BME280;33066;49.296;14.470;2023-04-01T13:04:20;95558.85;;;17.32;29.82
47082;BME280;33066;49.296;14.470;2023-04-01T13:06:32;95558.43;;;17.54;29.78
47082;BME280;33066;49.296;14.470;2023-04-01T13:08:58;95557.86;;;17.57;29.96
47082;BME280;33066;49.296;14.470;2023-04-01T13:11:22;95553.57;;;17.31;29.85
47082;BME280;33066;49.296;14.470;2023-04-01T13:13:57;95556.99;;;17.18;29.77
47082;BME280;33066;49.296;14.470;2023-04-01T13:16:11;95560.03;;;17.60;30.20
47082;BME280;33066;49.296;14.470;2023-04-01T13:18:38;95560.04;;;17.53;30.17
47082;BME280;33066;49.296;14.470;2023-04-01T13:21:05;95555.88;;;17.56;29.62
47082;BME280;33066;49.296;14.470;2023-04-01T13:23:33;95562.78;;;17.51;29.96
47082;BME280;33066;49.296;14.470;2023-04-01T13:25:54;95560.60;;;17.31;29.37
47082;BME280;33066;49.296;14.470;2023-04-01T13:28:20;95569.75;;;17.37;29.39
47082;BME280;33066;49.296;14.470;2023-04-01T13:30:44;95557.36;;;17.44;29.62
47082;BME280;33066;49.296;14.470;2023-04-01T13:33:12;95563.49;;;17.74;29.88
47082;BME280;33066;49.296;14.470;2023-04-01T13:35:36;95559.90;;;17.46;30.00
47082;BME280;33066;49.296;14.470;2023-04-01T13:38:08;95559.01;;;17.68;29.35
47082;BME280;33066;49.296;14.470;2023-04-01T13:42:51;95555.37;;;20.57;25.93
47082;BME280;33066;49.296;14.470;2023-04-01T13:45:15;95551.01;;;21.65;25.01
47082;BME280;33066;49.296;14.470;2023-04-01T13:47:54;95552.61;;;20.59;25.29
47082;BME280;33066;49.296;14.470;2023-04-01T13:54:59;95562.90;;;19.19;27.21
47082;BME280;33066;49.296;14.470;2023-04-01T13:57:30;95567.92;;;19.22;27.74
47082;BME280;33066;49.296;14.470;2023-04-01T13:59:51;95563.28;;;19.06;27.95
47082;BME280;33066;49.296;14.470;2023-04-01T14:02:24;95569.09;;;19.88;27.54
47082;BME280;33066;49.296;14.470;2023-04-01T14:04:43;95559.12;;;19.48;26.96
47082;BME280;33066;49.296;14.470;2023-04-01T14:07:05;95564.99;;;19.11;26.84
47082;BME280;33066;49.296;14.470;2023-04-01T14:09:39;95571.52;;;18.98;27.17